createdAt,value
2023-03-01T00:02:13.081Z,39.48
2023-03-01T00:04:42.553Z,41.30
2023-03-01T00:07:12.457Z,37.75
2023-03-01T00:09:41.898Z,34.33
2023-03-01T00:12:12.556Z,34.27
2023-03-01T00:14:41.986Z,33.73
2023-03-01T00:17:11.512Z,33.13
2023-03-01T00:19:41.388Z,34.73
2023-03-01T00:22:10.820Z,33.00
2023-03-01T00:24:40.498Z,31.35
2023-03-01T00:27:10.153Z,32.53
2023-03-01T00:29:39.606Z,29.02
2023-03-01T00:32:09.046Z,29.60
2023-03-01T00:34:38.859Z,30.12
2023-03-01T00:37:08.294Z,24.92
2023-03-01T00:39:37.729Z,25.72
2023-03-01T00:42:07.232Z,27.00
2023-03-01T00:44:36.899Z,24.82
2023-03-01T00:47:07.333Z,28.75
2023-03-01T00:49:37.247Z,25.80
2023-03-01T00:52:06.815Z,26.05
2023-03-01T00:54:36.410Z,21.75
2023-03-01T00:57:05.833Z,24.33
2023-03-01T00:59:36.788Z,25.68
2023-03-01T01:02:06.201Z,26.75
2023-03-01T01:04:35.660Z,22.27
2023-03-01T01:07:06.834Z,21.82
2023-03-01T01:09:36.547Z,22.52
2023-03-01T01:12:06.253Z,19.52
2023-03-01T01:14:37.080Z,20.10
2023-03-01T01:17:07.462Z,17.77
2023-03-01T01:19:37.256Z,20.50
2023-03-01T01:22:06.764Z,21.07
2023-03-01T01:24:37.186Z,23.27
2023-03-01T01:27:08.391Z,16.67
2023-03-01T01:29:39.404Z,19.75
2023-03-01T01:32:08.904Z,20.85
2023-03-01T01:34:38.988Z,23.47
2023-03-01T01:37:09.025Z,22.25
2023-03-01T01:39:39.076Z,16.82
2023-03-01T01:42:10.264Z,17.45
2023-03-01T01:44:41.326Z,21.52
2023-03-01T01:47:16.862Z,20.62
2023-03-01T01:49:58.155Z,20.77
2023-03-01T01:52:30.692Z,18.10
2023-03-01T01:55:03.528Z,19.92
2023-03-01T01:57:48.643Z,20.37
2023-03-01T02:00:21.176Z,20.40
2023-03-01T02:03:06.638Z,18.90
2023-03-01T02:05:55.457Z,19.05
2023-03-01T02:08:24.487Z,24.85
2023-03-01T02:10:56.792Z,19.80
2023-03-01T02:13:26.274Z,20.57
2023-03-01T02:15:57.239Z,21.82
2023-03-01T02:18:28.072Z,20.27
2023-03-01T02:21:00.565Z,24.80
2023-03-01T02:23:31.559Z,23.02
2023-03-01T02:26:10.126Z,23.62
2023-03-01T02:28:42.470Z,25.20
2023-03-01T02:31:32.460Z,22.95
2023-03-01T02:34:02.286Z,23.95
2023-03-01T02:36:34.781Z,23.05
2023-03-01T02:39:07.755Z,24.57
2023-03-01T02:41:39.733Z,23.65
2023-03-01T02:44:09.787Z,22.90
2023-03-01T02:46:44.337Z,26.82
2023-03-01T02:49:29.472Z,26.95
2023-03-01T02:52:19.048Z,30.60
2023-03-01T02:54:54.297Z,26.52
2023-03-01T02:57:28.402Z,28.77
2023-03-01T03:00:01.742Z,25.48
2023-03-01T03:02:38.863Z,24.87
2023-03-01T03:05:13.282Z,25.12
2023-03-01T03:07:45.819Z,25.85
2023-03-01T03:10:21.490Z,21.75
2023-03-01T03:12:57.064Z,22.95
2023-03-01T03:15:29.293Z,25.08
2023-03-01T03:18:00.607Z,27.20
2023-03-01T03:20:31.450Z,30.23
2023-03-01T03:23:01.520Z,29.87
2023-03-01T03:25:40.832Z,31.15
2023-03-01T03:28:13.735Z,32.45
2023-03-01T03:33:25.263Z,29.20
2023-03-01T03:35:54.717Z,27.80
2023-03-01T03:38:24.496Z,29.98
2023-03-01T03:41:05.978Z,29.20
2023-03-01T03:43:38.311Z,28.20
2023-03-01T03:46:08.787Z,27.45
2023-03-01T03:48:45.027Z,27.70
2023-03-01T03:51:17.306Z,26.17
2023-03-01T03:53:47.396Z,23.47
2023-03-01T03:56:16.946Z,29.52
2023-03-01T03:58:46.464Z,32.15
2023-03-01T04:01:15.985Z,30.68
2023-03-01T04:03:47.333Z,34.10
2023-03-01T04:06:17.398Z,26.95
2023-03-01T04:08:46.822Z,24.72
2023-03-01T04:11:28.230Z,26.42
2023-03-01T04:14:01.025Z,25.43
2023-03-01T04:16:31.291Z,24.85
2023-03-01T04:19:01.699Z,28.07
2023-03-01T04:21:31.440Z,24.02
2023-03-01T04:24:00.879Z,28.07
2023-03-01T04:26:30.576Z,25.60
2023-03-01T04:29:01.093Z,22.87
2023-03-01T04:31:30.520Z,23.12
2023-03-01T04:34:01.408Z,23.83
2023-03-01T04:36:32.224Z,25.27
2023-03-01T04:39:04.007Z,22.27
2023-03-01T04:41:33.424Z,27.42
2023-03-01T04:44:04.363Z,22.22
2023-03-01T04:46:34.264Z,26.62
2023-03-01T04:49:04.892Z,25.60
2023-03-01T04:51:34.313Z,26.15
2023-03-01T04:54:04.401Z,27.07
2023-03-01T04:56:33.987Z,24.47
2023-03-01T04:59:05.060Z,26.45
2023-03-01T05:01:36.432Z,24.52
2023-03-01T05:04:06.682Z,27.35
2023-03-01T05:06:36.449Z,27.87
2023-03-01T05:09:06.162Z,31.30
2023-03-01T05:11:37.198Z,35.50
2023-03-01T05:14:08.731Z,35.90
2023-03-01T05:16:38.607Z,31.87
2023-03-01T05:19:09.886Z,29.87
2023-03-01T05:21:59.823Z,33.27
2023-03-01T05:24:30.962Z,24.50
2023-03-01T05:27:01.408Z,27.93
2023-03-01T05:29:34.659Z,29.92
2023-03-01T05:32:05.280Z,27.62
2023-03-01T05:34:37.601Z,27.45
2023-03-01T05:39:38.220Z,27.05
2023-03-01T05:42:09.437Z,31.12
2023-03-01T05:44:39.398Z,33.53
2023-03-01T05:47:08.884Z,27.95
2023-03-01T05:49:39.775Z,30.02
2023-03-01T05:52:10.860Z,38.47
2023-03-01T05:54:42.258Z,34.08
2023-03-01T05:57:11.922Z,34.30
2023-03-01T05:59:41.471Z,33.88
2023-03-01T06:02:10.923Z,36.73
2023-03-01T06:04:40.779Z,36.15
2023-03-01T06:07:10.384Z,37.77
2023-03-01T06:09:39.832Z,36.77
2023-03-01T06:12:09.334Z,39.03
2023-03-01T06:14:39.134Z,32.93
2023-03-01T06:17:08.580Z,35.48
2023-03-01T06:19:38.192Z,34.63
2023-03-01T06:22:08.173Z,39.83
2023-03-01T06:24:37.764Z,39.53
2023-03-01T06:27:07.406Z,42.58
2023-03-01T06:29:36.842Z,40.38
2023-03-01T06:32:06.640Z,38.08
2023-03-01T06:34:36.269Z,37.60
2023-03-01T06:37:06.372Z,41.30
2023-03-01T06:39:36.619Z,34.53
2023-03-01T06:42:06.492Z,36.55
2023-03-01T06:44:36.200Z,39.00
2023-03-01T06:47:06.280Z,43.98
2023-03-01T06:49:35.833Z,40.30
2023-03-01T06:52:05.729Z,40.23
2023-03-01T06:54:35.248Z,38.77
2023-03-01T06:57:05.180Z,38.23
2023-03-01T06:59:34.614Z,34.95
2023-03-01T07:02:04.038Z,43.98
2023-03-01T07:04:33.626Z,34.23
2023-03-01T07:07:03.845Z,38.83
2023-03-01T07:09:33.382Z,43.90
2023-03-01T07:12:03.078Z,40.83
2023-03-01T07:14:32.704Z,40.00
2023-03-01T07:17:02.731Z,46.63
2023-03-01T07:19:32.230Z,38.50
2023-03-01T07:22:01.659Z,58.00
2023-03-01T07:24:31.178Z,50.60
2023-03-01T07:27:00.610Z,51.15
2023-03-01T07:29:30.203Z,53.38
2023-03-01T07:32:00.391Z,60.55
2023-03-01T07:34:29.974Z,42.27
2023-03-01T07:36:59.481Z,51.25
2023-03-01T07:39:29.120Z,55.33
2023-03-01T07:41:58.537Z,50.23
2023-03-01T07:44:29.941Z,54.33
2023-03-01T07:46:59.388Z,40.73
2023-03-01T07:49:28.972Z,54.70
2023-03-01T07:51:58.528Z,39.20
2023-03-01T07:54:28.110Z,49.83
2023-03-01T07:56:59.382Z,41.33
2023-03-01T07:59:31.004Z,38.90
2023-03-01T08:02:01.204Z,41.40
2023-03-01T08:04:30.763Z,38.67
2023-03-01T08:07:00.254Z,54.65
2023-03-01T08:09:30.084Z,35.13
2023-03-01T08:12:00.634Z,38.15
2023-03-01T08:14:30.957Z,30.97
2023-03-01T08:17:00.456Z,37.40
2023-03-01T08:19:29.980Z,31.52
2023-03-01T08:21:59.504Z,32.95
2023-03-01T08:24:29.404Z,27.45
2023-03-01T08:26:59.156Z,33.33
2023-03-01T08:29:28.858Z,29.27
2023-03-01T08:31:58.542Z,25.30
2023-03-01T08:34:32.712Z,40.17
2023-03-01T08:37:02.193Z,31.93
2023-03-01T08:39:31.802Z,28.40
2023-03-01T08:42:01.854Z,28.20
2023-03-01T08:44:31.268Z,27.95
2023-03-01T08:47:02.098Z,27.65
2023-03-01T08:49:33.163Z,27.25
2023-03-01T08:52:04.794Z,28.60
2023-03-01T08:54:34.209Z,23.98
2023-03-01T08:57:04.617Z,24.92
2023-03-01T08:59:36.003Z,26.48
2023-03-01T09:02:07.992Z,28.83
2023-03-01T09:04:37.486Z,25.97
2023-03-01T09:07:06.990Z,26.62
2023-03-01T09:09:37.263Z,28.35
2023-03-01T09:12:07.150Z,28.77
2023-03-01T09:14:38.930Z,29.30
2023-03-01T09:17:09.935Z,29.40
2023-03-01T09:19:39.600Z,25.10
2023-03-01T09:22:09.051Z,21.70
2023-03-01T09:24:38.483Z,22.67
2023-03-01T09:27:10.358Z,16.10
2023-03-01T09:29:41.202Z,17.70
2023-03-01T09:32:11.330Z,18.85
2023-03-01T09:34:59.170Z,19.02
2023-03-01T09:37:31.315Z,17.40
2023-03-01T09:40:01.653Z,15.47
2023-03-01T09:42:33.807Z,18.45
2023-03-01T09:45:09.280Z,15.73
2023-03-01T09:47:39.710Z,17.15
2023-03-01T09:50:21.258Z,14.30
2023-03-01T09:53:03.348Z,16.05
2023-03-01T09:55:52.095Z,15.75
2023-03-01T09:58:30.560Z,15.20
2023-03-01T10:01:03.122Z,15.78
2023-03-01T10:03:38.995Z,15.58
2023-03-01T10:06:34.623Z,12.33
2023-03-01T10:09:04.906Z,10.35
2023-03-01T10:11:41.248Z,8.28
2023-03-01T10:14:37.089Z,7.45
2023-03-01T10:17:12.406Z,11.20
2023-03-01T10:19:45.702Z,8.20
2023-03-01T10:22:22.775Z,8.00
2023-03-01T10:24:55.174Z,6.97
2023-03-01T10:27:33.550Z,9.60
2023-03-01T10:30:22.251Z,8.98
2023-03-01T10:32:54.731Z,10.23
2023-03-01T10:35:32.062Z,7.42
2023-03-01T10:38:11.216Z,7.25
2023-03-01T10:40:56.108Z,8.85
2023-03-01T10:43:27.692Z,9.13
2023-03-01T10:45:57.346Z,9.18
2023-03-01T10:48:29.671Z,7.20
2023-03-01T10:51:05.174Z,11.33
2023-03-01T10:53:46.104Z,8.20
2023-03-01T10:56:17.667Z,8.00
2023-03-01T10:59:05.184Z,7.90
2023-03-01T11:01:37.024Z,10.68
2023-03-01T11:04:12.435Z,7.03
2023-03-01T11:06:43.789Z,7.65
2023-03-01T11:09:19.871Z,8.65
2023-03-01T11:11:54.989Z,9.38
2023-03-01T11:14:27.830Z,8.55
2023-03-01T11:17:03.933Z,10.45
2023-03-01T11:19:34.465Z,7.92
2023-03-01T11:22:15.849Z,9.03
2023-03-01T11:25:03.540Z,9.23
2023-03-01T11:27:39.440Z,7.83
2023-03-01T11:30:11.432Z,8.63
2023-03-01T11:32:47.154Z,10.00
2023-03-01T11:35:22.521Z,11.15
2023-03-01T11:38:07.330Z,8.68
2023-03-01T11:40:45.811Z,7.45
2023-03-01T11:43:21.529Z,8.58
2023-03-01T11:45:54.102Z,7.12
2023-03-01T11:48:43.598Z,7.85
2023-03-01T11:51:06.623Z,9.45
2023-03-01T11:53:54.514Z,6.90
2023-03-01T11:56:34.208Z,8.05
2023-03-01T11:59:22.016Z,7.47
2023-03-01T12:01:54.854Z,7.75
2023-03-01T12:04:30.932Z,8.08
2023-03-01T12:07:02.997Z,9.65
2023-03-01T12:09:56.707Z,9.93
2023-03-01T12:12:34.776Z,8.18
2023-03-01T12:15:31.557Z,8.13
2023-03-01T12:18:12.250Z,9.00
2023-03-01T12:20:44.827Z,7.35
2023-03-01T12:23:29.230Z,7.40
2023-03-01T12:26:14.476Z,8.65
2023-03-01T12:28:59.234Z,11.25
2023-03-01T12:31:57.661Z,9.88
2023-03-01T12:34:36.220Z,8.20
2023-03-01T12:37:28.848Z,8.43
2023-03-01T12:40:18.652Z,8.87
2023-03-01T12:43:11.034Z,7.47
2023-03-01T12:45:58.632Z,7.08
2023-03-01T12:48:43.449Z,10.15
2023-03-01T12:51:15.946Z,8.20
2023-03-01T12:53:51.506Z,7.53
2023-03-01T12:56:26.704Z,8.70
2023-03-01T12:59:19.009Z,9.13
2023-03-01T13:02:01.244Z,7.28
2023-03-01T13:04:58.096Z,8.13
2023-03-01T13:07:42.511Z,8.50
2023-03-01T13:10:41.138Z,7.10
2023-03-01T13:13:16.658Z,10.95
2023-03-01T13:15:47.808Z,7.12
2023-03-01T13:18:29.184Z,8.78
2023-03-01T13:21:04.345Z,7.67
2023-03-01T13:23:36.677Z,7.22
2023-03-01T13:26:20.758Z,7.62
2023-03-01T13:29:01.536Z,7.33
2023-03-01T13:31:34.202Z,8.05
2023-03-01T13:34:05.906Z,6.33
2023-03-01T13:36:38.928Z,6.45
2023-03-01T13:41:59.173Z,7.20
2023-03-01T13:44:37.455Z,6.83
2023-03-01T13:47:10.166Z,11.30
2023-03-01T13:49:58.606Z,7.55
2023-03-01T13:52:45.886Z,7.00
2023-03-01T13:55:27.250Z,6.65
2023-03-01T13:57:59.935Z,7.03
2023-03-01T14:00:32.674Z,8.68
2023-03-01T14:03:18.148Z,7.45
2023-03-01T14:06:13.979Z,9.73
2023-03-01T14:08:39.374Z,7.62
2023-03-01T14:11:29.709Z,8.50
2023-03-01T14:14:20.281Z,10.05
2023-03-01T14:17:01.730Z,8.53
2023-03-01T14:19:35.560Z,8.50
2023-03-01T14:22:08.043Z,10.08
2023-03-01T14:24:40.659Z,7.90
2023-03-01T14:27:16.880Z,7.60
2023-03-01T14:29:48.814Z,7.60
2023-03-01T14:32:24.035Z,8.27
2023-03-01T14:34:54.187Z,8.00
2023-03-01T14:37:26.723Z,11.25
2023-03-01T14:39:57.733Z,7.35
2023-03-01T14:42:30.216Z,10.47
2023-03-01T14:45:02.472Z,8.05
2023-03-01T14:50:08.033Z,7.67
2023-03-01T14:52:44.036Z,9.15
2023-03-01T14:55:19.424Z,12.28
2023-03-01T14:57:53.336Z,9.03
2023-03-01T15:00:26.450Z,8.58
2023-03-01T15:05:36.172Z,8.48
2023-03-01T15:08:06.781Z,9.28
2023-03-01T15:10:38.873Z,8.83
2023-03-01T15:13:17.035Z,8.85
2023-03-01T15:15:47.920Z,11.10
2023-03-01T15:18:25.620Z,9.45
2023-03-01T15:21:06.822Z,7.85
2023-03-01T15:23:54.359Z,8.55
2023-03-01T15:26:41.707Z,7.17
2023-03-01T15:29:23.790Z,7.60
2023-03-01T15:32:06.543Z,8.80
2023-03-01T15:34:39.100Z,7.35
2023-03-01T15:37:14.420Z,9.30
2023-03-01T15:39:46.864Z,8.80
2023-03-01T15:42:33.267Z,8.93
2023-03-01T15:45:23.006Z,8.13
2023-03-01T15:48:03.126Z,7.28
2023-03-01T15:50:41.929Z,10.90
2023-03-01T15:53:23.630Z,8.20
2023-03-01T15:55:56.299Z,8.58
2023-03-01T15:58:32.490Z,8.50
2023-03-01T16:01:18.402Z,11.93
2023-03-01T16:04:05.709Z,9.43
2023-03-01T16:06:45.640Z,10.20
2023-03-01T16:09:15.800Z,8.30
2023-03-01T16:11:45.218Z,9.38
2023-03-01T16:14:15.706Z,8.93
2023-03-01T16:16:46.501Z,10.80
2023-03-01T16:19:17.058Z,10.55
2023-03-01T16:21:48.144Z,8.40
2023-03-01T16:24:18.430Z,8.52
2023-03-01T16:26:47.849Z,9.30
2023-03-01T16:29:17.693Z,8.10
2023-03-01T16:31:47.995Z,10.15
2023-03-01T16:34:17.856Z,9.78
2023-03-01T16:36:49.893Z,9.23
2023-03-01T16:39:18.670Z,9.85
2023-03-01T16:41:48.311Z,11.25
2023-03-01T16:44:17.874Z,12.58
2023-03-01T16:46:47.858Z,11.40
2023-03-01T16:49:17.358Z,14.30
2023-03-01T16:51:46.863Z,17.30
2023-03-01T16:54:16.545Z,11.05
2023-03-01T16:56:45.985Z,9.73
2023-03-01T16:59:17.381Z,9.63
2023-03-01T17:01:52.287Z,12.93
2023-03-01T17:04:22.425Z,11.25
2023-03-01T17:06:52.023Z,12.43
2023-03-01T17:09:23.699Z,9.25
2023-03-01T17:11:53.146Z,10.88
2023-03-01T17:14:23.521Z,14.58
2023-03-01T17:16:54.160Z,12.58
2023-03-01T17:19:23.835Z,14.38
2023-03-01T17:21:53.286Z,39.25
2023-03-01T17:24:23.014Z,17.52
2023-03-01T17:26:52.483Z,67.10
2023-03-01T17:29:21.917Z,156.97
2023-03-01T17:31:51.985Z,129.57
2023-03-01T17:34:21.804Z,69.75
2023-03-01T17:36:52.264Z,41.35
2023-03-01T17:39:26.212Z,74.03
2023-03-01T17:41:56.302Z,35.35
2023-03-01T17:44:26.286Z,25.40
2023-03-01T17:46:55.721Z,35.90
2023-03-01T17:49:25.240Z,28.62
2023-03-01T17:51:54.759Z,23.35
2023-03-01T17:54:24.499Z,18.00
2023-03-01T17:56:55.000Z,17.98
2023-03-01T17:59:24.748Z,21.68
2023-03-01T18:01:54.189Z,23.70
2023-03-01T18:04:24.087Z,18.42
2023-03-01T18:06:53.490Z,25.62
2023-03-01T18:09:23.848Z,22.80
2023-03-01T18:11:54.147Z,26.48
2023-03-01T18:14:24.030Z,27.40
2023-03-01T18:16:53.601Z,26.17
2023-03-01T18:19:23.156Z,21.10
2023-03-01T18:21:52.647Z,24.37
2023-03-01T18:24:22.140Z,20.15
2023-03-01T18:26:51.555Z,30.85
2023-03-01T18:29:21.989Z,31.33
2023-03-01T18:31:52.119Z,30.92
2023-03-01T18:34:22.010Z,36.63
2023-03-01T18:37:08.689Z,32.67
2023-03-01T18:39:27.364Z,38.15
2023-03-01T18:41:56.865Z,31.05
2023-03-01T18:44:26.393Z,39.80
2023-03-01T18:46:58.605Z,36.45
2023-03-01T18:49:28.128Z,30.27
2023-03-01T18:51:57.610Z,34.17
2023-03-01T18:54:28.046Z,28.80
2023-03-01T18:56:57.463Z,26.02
2023-03-01T18:59:27.183Z,26.85
2023-03-01T19:01:56.834Z,27.10
2023-03-01T19:04:27.445Z,26.60
2023-03-01T19:06:56.837Z,25.93
2023-03-01T19:09:26.409Z,33.98
2023-03-01T19:11:57.473Z,26.17
2023-03-01T19:14:27.404Z,28.00
2023-03-01T19:16:56.844Z,34.65
2023-03-01T19:19:26.358Z,34.50
2023-03-01T19:22:05.696Z,35.13
2023-03-01T19:24:27.584Z,37.53
2023-03-01T19:26:57.511Z,37.05
2023-03-01T19:29:27.271Z,34.95
2023-03-01T19:31:57.020Z,31.60
2023-03-01T19:34:26.515Z,31.65
2023-03-01T19:36:55.944Z,28.35
2023-03-01T19:39:26.659Z,26.35
2023-03-01T19:41:56.790Z,29.92
2023-03-01T19:44:26.368Z,30.02
2023-03-01T19:46:57.812Z,36.23
2023-03-01T19:49:27.819Z,39.35
2023-03-01T19:51:57.321Z,45.80
2023-03-01T19:54:26.775Z,37.28
2023-03-01T19:56:57.745Z,30.48
2023-03-01T19:59:28.462Z,29.20
2023-03-01T20:01:59.129Z,26.68
2023-03-01T20:04:28.607Z,25.77
2023-03-01T20:06:58.023Z,25.27
2023-03-01T20:09:28.323Z,30.25
2023-03-01T20:11:58.161Z,29.60
2023-03-01T20:14:27.692Z,28.12
2023-03-01T20:16:57.724Z,32.03
2023-03-01T20:19:27.230Z,33.35
2023-03-01T20:21:56.660Z,33.40
2023-03-01T20:24:26.502Z,34.75
2023-03-01T20:26:55.936Z,40.92
2023-03-01T20:29:25.447Z,43.85
2023-03-01T20:31:55.628Z,42.60
2023-03-01T20:34:26.895Z,40.53
2023-03-01T20:36:56.952Z,40.90
2023-03-01T20:39:26.394Z,39.35
2023-03-01T20:41:55.884Z,38.38
2023-03-01T20:44:25.430Z,33.53
2023-03-01T20:46:54.874Z,43.60
2023-03-01T20:49:24.290Z,42.70
2023-03-01T20:51:53.997Z,44.90
2023-03-01T20:54:23.414Z,42.48
2023-03-01T20:56:52.852Z,40.83
2023-03-01T20:59:24.414Z,42.80
2023-03-01T21:01:53.849Z,39.58
2023-03-01T21:04:23.273Z,43.73
2023-03-01T21:06:55.447Z,38.00
2023-03-01T21:09:24.168Z,35.60
2023-03-01T21:11:53.685Z,35.55
2023-03-01T21:14:24.527Z,30.90
2023-03-01T21:16:54.113Z,30.45
2023-03-01T21:19:25.875Z,32.83
2023-03-01T21:21:55.088Z,27.83
2023-03-01T21:24:24.611Z,27.67
2023-03-01T21:26:54.047Z,32.63
2023-03-01T21:29:23.970Z,34.03
2023-03-01T21:31:54.006Z,31.73
2023-03-01T21:34:23.710Z,27.20
2023-03-01T21:36:54.289Z,25.87
2023-03-01T21:39:25.421Z,30.40
2023-03-01T21:41:55.419Z,33.78
2023-03-01T21:44:27.025Z,29.92
2023-03-01T21:46:59.282Z,28.03
2023-03-01T21:49:28.911Z,21.12
2023-03-01T21:51:58.339Z,24.53
2023-03-01T21:54:28.477Z,24.45
2023-03-01T21:56:58.507Z,25.52
2023-03-01T21:59:29.086Z,27.98
2023-03-01T22:01:58.504Z,25.05
2023-03-01T22:04:27.932Z,27.82
2023-03-01T22:06:57.841Z,24.67
2023-03-01T22:09:28.225Z,24.23
2023-03-01T22:12:04.424Z,28.47
2023-03-01T22:14:35.046Z,28.95
2023-03-01T22:17:04.610Z,28.52
2023-03-01T22:19:34.081Z,24.65
2023-03-01T22:22:03.529Z,23.05
2023-03-01T22:24:33.409Z,25.50
2023-03-01T22:27:02.840Z,24.07
2023-03-01T22:29:32.406Z,24.50
2023-03-01T22:32:01.990Z,22.93
2023-03-01T22:34:31.735Z,27.93
2023-03-01T22:37:01.209Z,21.55
2023-03-01T22:39:30.800Z,23.85
2023-03-01T22:42:00.243Z,25.17
2023-03-01T22:44:29.664Z,25.50
2023-03-01T22:47:02.399Z,24.25
2023-03-01T22:52:01.744Z,23.83
2023-03-01T22:54:31.550Z,22.17
2023-03-01T22:57:01.053Z,22.13
2023-03-01T22:59:30.718Z,24.37
2023-03-01T23:02:00.499Z,21.17
2023-03-01T23:04:29.977Z,22.85
2023-03-01T23:06:59.406Z,27.77
2023-03-01T23:09:33.690Z,25.15
2023-03-01T23:12:05.957Z,27.10
2023-03-01T23:14:36.614Z,29.42
2023-03-01T23:17:07.730Z,24.37
2023-03-01T23:19:37.285Z,24.40
2023-03-01T23:22:07.090Z,23.27
2023-03-01T23:24:37.101Z,22.95
2023-03-01T23:27:07.166Z,20.30
2023-03-01T23:29:37.120Z,20.82
2023-03-01T23:32:07.250Z,25.10
2023-03-01T23:34:37.397Z,21.37
2023-03-01T23:37:08.687Z,18.82
2023-03-01T23:39:38.545Z,20.68
2023-03-01T23:42:09.315Z,20.10
2023-03-01T23:44:40.976Z,18.42
2023-03-01T23:47:10.924Z,19.17
2023-03-01T23:49:40.413Z,19.10
2023-03-01T23:52:16.380Z,19.85
2023-03-01T23:54:46.953Z,19.10
2023-03-01T23:57:16.653Z,19.92
2023-03-01T23:59:48.104Z,22.65
